Time;durP1;ratioP1;P1;durP2;ratioP2;P2;SDS_P1;SDS_P2;PMS_P1;PMS_P2;Temp;Humidity;BMP_temperature;BMP_pressure;BME280_temperature;BME280_humidity;BME280_pressure;Samples;Min_cycle;Max_cycle;Signal;HPM_P1;HPM_P2
2023/05/07 00:07:34;;;;;;;4.37;1.50;;;;;;;10.24;100.00;100735.63;31219587;28;20462;-76
2023/05/07 00:22:36;;;;;;;1.97;1.67;;;;;;;9.86;100.00;100727.34;31187671;28;20099;-77
2023/05/07 00:37:38;;;;;;;2.17;1.50;;;;;;;9.89;100.00;100729.28;31231870;28;20061;-78
2023/05/07 00:52:41;;;;;;;2.80;1.70;;;;;;;9.88;100.00;100735.88;31218299;28;20084;-78
2023/05/07 01:07:43;;;;;;;3.67;1.50;;;;;;;9.79;100.00;100738.25;31217380;28;20057;-77
2023/05/07 01:22:45;;;;;;;1.43;1.03;;;;;;;9.63;100.00;100729.81;31229345;28;20045;-75
2023/05/07 01:37:48;;;;;;;3.27;1.60;;;;;;;9.48;100.00;100741.88;31206760;28;20542;-77
2023/05/07 01:52:50;;;;;;;2.10;1.50;;;;;;;9.27;100.00;100752.81;31187059;28;20089;-77
2023/05/07 02:07:52;;;;;;;1.63;1.40;;;;;;;9.24;100.00;100741.63;31225710;28;20053;-76
2023/05/07 02:22:54;;;;;;;3.13;1.73;;;;;;;9.09;100.00;100745.53;31203996;28;20038;-76
2023/05/07 02:37:56;;;;;;;4.20;1.93;;;;;;;9.09;100.00;100745.53;31230997;28;20057;-78
2023/05/07 02:52:58;;;;;;;2.80;1.47;;;;;;;9.16;100.00;100750.19;31209457;28;20049;-78
2023/05/07 03:08:00;;;;;;;7.67;3.30;;;;;;;9.32;100.00;100744.28;31202974;28;20103;-78
2023/05/07 03:23:03;;;;;;;4.07;2.07;;;;;;;9.58;100.00;100760.81;31177669;28;20053;-77
2023/05/07 03:38:05;;;;;;;3.47;1.70;;;;;;;9.87;100.00;100769.56;31202252;28;20057;-78
2023/05/07 03:53:06;;;;;;;2.87;1.93;;;;;;;10.29;100.00;100773.19;31192944;28;20487;-77
2023/05/07 04:08:08;;;;;;;2.20;1.67;;;;;;;10.75;100.00;100775.50;31204824;28;20050;-79
2023/05/07 04:23:10;;;;;;;2.77;1.63;;;;;;;11.00;100.00;100775.25;31210883;28;20495;-77
2023/05/07 04:38:12;;;;;;;2.93;1.80;;;;;;;11.35;100.00;100757.75;31200084;28;20061;-78
2023/05/07 04:53:14;;;;;;;2.83;1.60;;;;;;;11.84;98.89;100761.00;31212466;28;20045;-79
2023/05/07 05:08:17;;;;;;;2.17;1.60;;;;;;;12.45;94.40;100761.63;31221019;28;20057;-78
2023/05/07 05:23:19;;;;;;;3.27;1.80;;;;;;;12.84;89.32;100760.91;31214076;28;20504;-77
2023/05/07 05:38:21;;;;;;;22.50;6.17;;;;;;;13.98;79.09;100781.19;31233865;28;20073;-80
2023/05/07 05:53:23;;;;;;;10.23;4.10;;;;;;;14.46;71.25;100782.41;31209518;28;20107;-77
2023/05/07 06:08:25;;;;;;;4.43;2.23;;;;;;;15.04;67.81;100768.03;31237151;28;20049;-78
2023/05/07 06:23:28;;;;;;;6.43;2.23;;;;;;;15.57;63.66;100761.09;31243438;28;20499;-79
2023/05/07 06:38:29;;;;;;;9.00;3.00;;;;;;;16.36;61.37;100768.38;31215079;28;20054;-78
2023/05/07 06:53:31;;;;;;;13.40;4.07;;;;;;;17.04;58.67;100762.13;31256525;28;20083;-79
2023/05/07 07:08:34;;;;;;;2.70;1.73;;;;;;;17.64;54.83;100742.69;31242111;28;20057;-82
2023/05/07 07:23:36;;;;;;;3.97;1.52;;;;;;;18.03;51.08;100738.38;31244691;28;20565;-82
2023/05/07 07:38:38;;;;;;;5.30;1.85;;;;;;;18.01;50.89;100738.06;31221806;28;20053;-83
2023/05/07 07:53:41;;;;;;;4.68;1.92;;;;;;;18.97;49.38;100719.53;31210945;28;20495;-84
2023/05/07 08:08:44;;;;;;;2.93;1.30;;;;;;;19.53;48.63;100729.97;31238512;28;20091;-84
2023/05/07 08:23:46;;;;;;;1.90;1.40;;;;;;;19.47;46.49;100731.03;31236478;28;20064;-83
2023/05/07 08:38:49;;;;;;;7.60;1.90;;;;;;;19.85;45.59;100716.66;31220875;28;20115;-83
2023/05/07 08:53:51;;;;;;;3.55;1.60;;;;;;;20.15;42.92;100706.53;31256946;28;20522;-82
2023/05/07 09:08:54;;;;;;;3.35;1.88;;;;;;;20.48;41.79;100718.28;31231888;28;20115;-78
2023/05/07 09:23:56;;;;;;;;;;;;;;;21.39;40.13;100711.13;31222497;28;20112;-79
2023/05/07 09:39:01;;;;;;;2.58;1.48;;;;;;;21.79;37.55;100710.47;31193498;28;20387;-84
2023/05/07 09:54:05;;;;;;;4.63;1.70;;;;;;;21.52;36.83;100685.94;31246611;28;20053;-82
2023/05/07 10:09:07;;;;;;;4.17;1.60;;;;;;;22.09;35.75;100694.56;31270990;28;20077;-82
2023/05/07 10:24:16;;;;;;;10.63;1.73;;;;;;;23.06;34.95;100687.56;31249860;28;20794;-84
2023/05/07 10:39:20;;;;;;;2.75;1.58;;;;;;;23.39;32.32;100668.44;31222392;28;20058;-85
2023/05/07 10:54:23;;;;;;;3.22;1.00;;;;;;;24.03;32.64;100649.66;31222474;28;20041;-84
2023/05/07 11:09:51;;;;;;;4.45;2.33;;;;;;;23.60;29.98;100646.94;31238873;28;20061;-79
2023/05/07 11:24:54;;;;;;;7.30;1.77;;;;;;;22.39;32.34;100624.03;31246868;28;20050;-79
2023/05/07 11:40:10;;;;;;;3.67;1.70;;;;;;;20.74;34.79;100614.44;31295637;28;20054;-81
2023/05/07 11:55:12;;;;;;;6.28;2.88;;;;;;;19.86;34.72;100603.22;31198736;28;20071;-80
2023/05/07 12:10:15;;;;;;;1.90;1.30;;;;;;;19.07;35.83;100595.25;31277804;28;20060;-81
2023/05/07 12:25:19;;;;;;;2.33;1.38;;;;;;;18.82;36.11;100578.38;31330864;28;20076;-81
2023/05/07 12:40:21;;;;;;;;;;;;;;;18.80;35.91;100583.56;31324982;28;20156;-80
2023/05/07 12:55:23;;;;;;;4.32;1.23;;;;;;;18.47;35.75;100569.69;31304925;28;19928;-80
2023/05/07 13:10:25;;;;;;;13.50;1.73;;;;;;;18.51;36.31;100565.59;31270773;28;20056;-80
2023/05/07 13:25:28;;;;;;;6.80;1.30;;;;;;;18.53;36.18;100574.13;31352060;28;20053;-81
2023/05/07 13:56:55;;;;;;;5.47;1.15;;;;;;;18.28;36.07;100574.47;31195518;28;20057;-83
2023/05/07 14:11:58;;;;;;;6.38;1.55;;;;;;;18.30;35.26;100572.03;31241650;28;20453;-82
2023/05/07 14:27:01;;;;;;;9.10;1.93;;;;;;;18.19;35.34;100577.25;31301482;28;20053;-81
2023/05/07 14:42:03;;;;;;;2.97;1.30;;;;;;;18.10;36.39;100579.97;31255666;28;20120;-79
2023/05/07 14:57:06;;;;;;;11.93;1.33;;;;;;;17.93;36.68;100577.56;31201278;28;20089;-81
2023/05/07 15:12:08;;;;;;;3.55;1.25;;;;;;;17.79;36.57;100586.38;31241129;28;20517;-83
2023/05/07 15:27:10;;;;;;;6.18;1.25;;;;;;;17.51;36.68;100590.25;31252578;28;20517;-80
2023/05/07 15:42:12;;;;;;;4.78;1.85;;;;;;;17.30;36.30;100581.66;31200365;28;20108;-81
2023/05/07 15:57:14;;;;;;;3.10;1.58;;;;;;;17.18;37.19;100596.25;31247336;28;20487;-81
2023/05/07 16:12:17;;;;;;;8.60;1.37;;;;;;;17.04;36.60;100607.75;31239763;28;20053;-81
2023/05/07 16:27:19;;;;;;;2.60;0.80;;;;;;;16.83;36.72;100612.09;31216864;28;20136;-82
2023/05/07 16:42:21;;;;;;;11.87;3.13;;;;;;;16.60;37.18;100632.47;31179159;28;20580;-82
2023/05/07 16:57:28;;;;;;;67.17;22.87;;;;;;;16.41;38.12;100644.50;31213401;28;20046;-83
2023/05/07 17:12:30;;;;;;;6.47;1.73;;;;;;;16.08;38.64;100671.47;31237643;28;20049;-81
2023/05/07 17:27:33;;;;;;;4.53;1.73;;;;;;;15.90;39.64;100674.03;31259145;28;20533;-83
2023/05/07 17:42:35;;;;;;;4.43;1.50;;;;;;;15.61;42.68;100682.38;31254685;28;20484;-86
2023/05/07 17:57:37;;;;;;;19.50;7.77;;;;;;;15.36;44.16;100700.28;31214959;28;20045;-82
2023/05/07 18:12:39;;;;;;;5.63;1.93;;;;;;;14.94;47.26;100707.75;31224972;28;20052;-81
2023/05/07 18:27:41;;;;;;;8.07;3.70;;;;;;;14.66;46.25;100698.38;31258652;28;20049;-84
2023/05/07 18:42:43;;;;;;;2.77;1.40;;;;;;;14.47;45.76;100696.53;31219470;28;20060;-81
2023/05/07 18:57:45;;;;;;;2.83;1.23;;;;;;;14.28;46.46;100684.50;31224633;28;20092;-83
2023/05/07 19:12:48;;;;;;;35.13;17.30;;;;;;;14.07;47.53;100678.81;31214712;28;20106;-86
2023/05/07 19:27:50;;;;;;;7.00;2.37;;;;;;;13.84;49.02;100683.28;31263140;28;20041;-84
2023/05/07 19:42:52;;;;;;;4.83;2.17;;;;;;;13.78;49.04;100682.25;31226819;28;20479;-86
2023/05/07 19:57:54;;;;;;;6.83;1.90;;;;;;;13.54;52.03;100691.75;31212076;28;20054;-83
2023/05/07 20:12:56;;;;;;;5.87;2.03;;;;;;;13.29;54.83;100698.53;31197535;28;20068;-84
2023/05/07 20:27:58;;;;;;;3.30;1.60;;;;;;;13.12;58.83;100704.31;31190855;28;20483;-82
2023/05/07 20:43:02;;;;;;;4.93;1.70;;;;;;;12.87;61.43;100715.72;31232121;28;20084;-82
2023/05/07 20:58:03;;;;;;;12.77;4.57;;;;;;;12.65;64.15;100731.69;31212863;28;20049;-82
2023/05/07 21:13:05;;;;;;;5.97;1.70;;;;;;;12.27;61.79;100731.22;31222056;28;20053;-83
2023/05/07 21:28:08;;;;;;;2.17;1.77;;;;;;;12.21;62.78;100724.69;31238825;28;20541;-83
2023/05/07 21:43:10;;;;;;;4.40;1.50;;;;;;;11.87;64.10;100743.88;31241630;28;20127;-82
2023/05/07 21:58:12;;;;;;;2.27;1.40;;;;;;;11.70;64.90;100756.53;31230910;28;20103;-82
2023/05/07 22:13:13;;;;;;;5.07;1.50;;;;;;;11.61;65.05;100757.00;31222630;28;20084;-83
2023/05/07 22:28:15;;;;;;;4.87;1.73;;;;;;;11.47;63.75;100759.94;31218511;28;20072;-82
2023/05/07 22:43:17;;;;;;;2.03;1.30;;;;;;;11.39;63.12;100765.84;31191035;28;20119;-82
2023/05/07 22:58:19;;;;;;;2.83;1.20;;;;;;;11.41;63.84;100771.66;31243294;28;20080;-82
2023/05/07 23:13:21;;;;;;;3.10;1.53;;;;;;;11.33;64.12;100754.69;31195255;28;20053;-82
2023/05/07 23:28:24;;;;;;;1.90;1.47;;;;;;;11.21;63.07;100758.69;31189201;28;20045;-81
2023/05/07 23:43:26;;;;;;;1.30;1.10;;;;;;;11.25;63.90;100754.00;31224038;28;20495;-82
2023/05/07 23:58:27;;;;;;;2.77;1.17;;;;;;;11.12;65.49;100766.56;31218175;28;20099;-82
